Disclaimer

Please do not use the information listed here in-flight or in-navigation, as they are not provided to us by the airports but are provided by volunteers, so they might be outdated.

Search


Regions


Airport information page

Radio informations:
GUAYAQUIL TWR - 118.3 MHz
RDO - 126.9 MHz
Ground (GND) - 121.9 MHz
Automatic Terminal Information Service (ATIS) - 115.9 MHz
GUAYAQUIL APP - 119.3 MHz
GUAYAQUIL ACC - 128.3 MHz

Airport informations:
Latitude: 02° 09' 26.71" S
Longitude: 079° 53' 00.81" W
Elevation: 19 feet - 6 meters
Operating hours: Remarks
Operating agency: Civil government, landing fees and diplomatic clearance may be required
Timezone: UTC-5
Fuel: N/A

Runway information:
03/21 - 9154 x 151 feet< - >2790 x 46 meters

Recent METARs:
SEGU 211000Z 22008KT 9999 FEW010 SCT026 BKN090 23/19 Q1011 NOSIG RMK A2988
SEGU 211000Z 22008KT 9999 FEW010 SCT026 BKN090 23/19 Q1011 NOSIG RMK A2988
SEGU 211100Z 23007KT 9999 FEW010 SCT026 BKN090 23/19 Q1012 NOSIG RMK A2989

Airport on the map: